createdAt,value
2023-05-14T00:00:30.020Z,13.20
2023-05-14T00:02:57.076Z,13.18
2023-05-14T00:05:25.543Z,13.73
2023-05-14T00:07:52.475Z,12.93
2023-05-14T00:10:22.017Z,12.70
2023-05-14T00:12:50.974Z,13.35
2023-05-14T00:15:18.133Z,12.77
2023-05-14T00:17:45.228Z,13.82
2023-05-14T00:20:12.535Z,11.95
2023-05-14T00:22:40.493Z,13.60
2023-05-14T00:25:08.448Z,13.90
2023-05-14T00:27:36.141Z,12.98
2023-05-14T00:30:04.601Z,12.75
2023-05-14T00:32:31.565Z,13.00
2023-05-14T00:34:58.773Z,12.80
2023-05-14T00:37:25.746Z,12.63
2023-05-14T00:39:52.678Z,11.95
2023-05-14T00:42:19.631Z,12.55
2023-05-14T00:44:46.533Z,11.80
2023-05-14T00:47:13.572Z,12.52
2023-05-14T00:49:41.375Z,12.73
2023-05-14T00:52:08.832Z,11.52
2023-05-14T00:54:36.677Z,11.77
2023-05-14T00:57:05.090Z,11.98
2023-05-14T00:59:32.396Z,12.35
2023-05-14T01:01:59.549Z,11.50
2023-05-14T01:04:26.708Z,12.50
2023-05-14T01:07:14.476Z,12.07
2023-05-14T01:09:53.951Z,12.60
2023-05-14T01:12:39.846Z,12.32
2023-05-14T01:15:13.927Z,11.60
2023-05-14T01:17:48.966Z,12.05
2023-05-14T01:22:43.925Z,13.75
2023-05-14T01:25:11.138Z,12.13
2023-05-14T01:27:59.776Z,11.88
2023-05-14T01:30:37.799Z,11.63
2023-05-14T01:33:11.966Z,11.70
2023-05-14T01:35:39.538Z,8.90
2023-05-14T01:38:10.682Z,11.25
2023-05-14T01:40:38.543Z,12.82
2023-05-14T01:43:05.936Z,14.23
2023-05-14T01:45:36.659Z,13.40
2023-05-14T01:48:05.264Z,13.10
2023-05-14T01:50:32.494Z,13.15
2023-05-14T01:53:00.107Z,13.38
2023-05-14T01:55:27.358Z,12.50
2023-05-14T01:57:54.416Z,14.18
2023-05-14T02:00:24.003Z,14.30
2023-05-14T02:02:51.394Z,14.35
2023-05-14T02:05:18.819Z,15.10
2023-05-14T02:07:46.116Z,14.18
2023-05-14T02:10:13.126Z,13.60
2023-05-14T02:12:40.061Z,13.07
2023-05-14T02:15:08.971Z,13.25
2023-05-14T02:17:35.951Z,12.18
2023-05-14T02:20:03.112Z,13.38
2023-05-14T02:22:30.103Z,13.75
2023-05-14T02:24:56.994Z,12.30
2023-05-14T02:27:23.941Z,12.75
2023-05-14T02:29:50.841Z,12.65
2023-05-14T02:32:18.169Z,11.90
2023-05-14T02:34:45.227Z,11.60
2023-05-14T02:37:12.055Z,12.35
2023-05-14T02:39:38.974Z,10.85
2023-05-14T02:42:07.146Z,11.20
2023-05-14T02:44:34.176Z,12.30
2023-05-14T02:47:01.116Z,10.75
2023-05-14T02:49:28.039Z,11.52
2023-05-14T02:51:55.195Z,12.57
2023-05-14T02:54:22.065Z,10.98
2023-05-14T02:56:49.031Z,10.45
2023-05-14T02:59:15.884Z,9.90
2023-05-14T03:01:43.180Z,10.02
2023-05-14T03:04:10.432Z,9.88
2023-05-14T03:06:37.527Z,9.77
2023-05-14T03:09:04.423Z,10.57
2023-05-14T03:11:31.357Z,10.88
2023-05-14T03:13:58.160Z,9.93
2023-05-14T03:16:24.985Z,10.35
2023-05-14T03:18:51.790Z,9.80
2023-05-14T03:21:18.756Z,10.65
2023-05-14T03:23:45.802Z,9.52
2023-05-14T03:26:12.604Z,9.82
2023-05-14T03:28:40.862Z,10.18
2023-05-14T03:31:07.749Z,9.65
2023-05-14T03:33:34.559Z,10.30
2023-05-14T03:36:01.462Z,12.40
2023-05-14T03:38:28.392Z,10.73
2023-05-14T03:40:55.311Z,10.85
2023-05-14T03:43:22.625Z,10.75
2023-05-14T03:45:52.532Z,10.95
2023-05-14T03:48:20.308Z,10.52
2023-05-14T03:50:47.463Z,11.60
2023-05-14T03:53:14.542Z,10.30
2023-05-14T03:55:41.417Z,11.02
2023-05-14T03:58:13.766Z,11.23
2023-05-14T04:00:44.504Z,10.48
2023-05-14T04:03:11.980Z,11.25
2023-05-14T04:05:38.927Z,10.70
2023-05-14T04:08:06.006Z,10.13
2023-05-14T04:10:32.875Z,10.05
2023-05-14T04:13:02.021Z,10.95
2023-05-14T04:15:29.068Z,10.88
2023-05-14T04:17:55.960Z,11.32
2023-05-14T04:20:22.989Z,10.15
2023-05-14T04:22:50.039Z,11.55
2023-05-14T04:25:18.484Z,11.50
2023-05-14T04:27:45.428Z,11.85
2023-05-14T04:30:12.994Z,11.52
2023-05-14T04:32:39.989Z,11.23
2023-05-14T04:35:07.734Z,10.85
2023-05-14T04:37:34.557Z,10.88
2023-05-14T04:40:01.695Z,10.50
2023-05-14T04:42:28.609Z,9.63
2023-05-14T04:44:55.386Z,9.63
2023-05-14T04:47:22.567Z,9.68
2023-05-14T04:49:49.489Z,10.25
2023-05-14T04:52:16.392Z,10.43
2023-05-14T04:54:43.202Z,10.10
2023-05-14T04:57:10.367Z,11.02
2023-05-14T04:59:37.283Z,10.38
2023-05-14T05:02:04.251Z,9.85
2023-05-14T05:04:31.179Z,10.15
2023-05-14T05:06:58.197Z,8.27
2023-05-14T05:09:25.033Z,8.07
2023-05-14T05:11:52.137Z,8.13
2023-05-14T05:14:19.409Z,8.45
2023-05-14T05:16:49.253Z,7.50
2023-05-14T05:19:16.520Z,7.28
2023-05-14T05:21:43.493Z,7.55
2023-05-14T05:24:10.602Z,5.95
2023-05-14T05:26:37.520Z,6.18
2023-05-14T05:29:08.139Z,6.32
2023-05-14T05:31:35.309Z,6.25
2023-05-14T05:34:04.508Z,6.00
2023-05-14T05:36:32.026Z,5.45
2023-05-14T05:38:58.852Z,5.78
2023-05-14T05:41:26.738Z,4.70
2023-05-14T05:43:53.594Z,4.90
2023-05-14T05:46:20.493Z,5.25
2023-05-14T05:48:47.494Z,4.80
2023-05-14T05:51:14.619Z,5.18
2023-05-14T05:53:41.619Z,5.03
2023-05-14T05:56:08.627Z,5.00
2023-05-14T05:58:35.824Z,4.82
2023-05-14T06:01:13.186Z,5.10
2023-05-14T06:03:40.308Z,5.18
2023-05-14T06:06:07.519Z,4.70
2023-05-14T06:15:16.112Z,4.88
2023-05-14T06:17:43.194Z,4.57
2023-05-14T06:20:11.364Z,4.60
2023-05-14T06:22:38.419Z,4.60
2023-05-14T06:25:05.817Z,4.82
2023-05-14T06:27:32.829Z,5.10
2023-05-14T06:30:01.763Z,4.97
2023-05-14T06:32:29.925Z,5.25
2023-05-14T06:34:57.070Z,4.90
2023-05-14T06:37:24.044Z,4.75
2023-05-14T06:39:51.267Z,5.03
2023-05-14T06:42:18.999Z,4.60
2023-05-14T06:44:46.547Z,4.40
2023-05-14T06:47:13.808Z,4.60
2023-05-14T06:49:40.850Z,4.95
2023-05-14T06:52:07.991Z,4.78
2023-05-14T06:54:35.106Z,4.85
2023-05-14T06:57:02.090Z,3.95
2023-05-14T06:59:29.130Z,4.18
2023-05-14T07:01:56.350Z,4.43
2023-05-14T07:04:23.964Z,4.20
2023-05-14T07:06:51.670Z,3.88
2023-05-14T07:09:18.880Z,3.70
2023-05-14T07:11:46.540Z,3.58
2023-05-14T07:14:13.830Z,3.65
2023-05-14T07:16:41.749Z,4.05
2023-05-14T07:19:09.285Z,3.80
2023-05-14T07:21:36.360Z,3.78
2023-05-14T07:24:03.564Z,4.00
2023-05-14T07:26:31.624Z,3.40
2023-05-14T07:28:58.963Z,3.58
2023-05-14T07:31:26.127Z,3.20
2023-05-14T07:33:53.216Z,3.53
2023-05-14T07:36:20.283Z,3.42
2023-05-14T07:38:47.402Z,3.22
2023-05-14T07:41:14.387Z,2.88
2023-05-14T07:43:41.508Z,2.90
2023-05-14T07:46:08.530Z,2.67
2023-05-14T07:48:35.538Z,2.83
2023-05-14T07:51:02.594Z,3.08
2023-05-14T07:53:29.799Z,3.15
2023-05-14T07:55:56.978Z,3.20
2023-05-14T07:58:25.138Z,3.08
2023-05-14T08:00:52.259Z,3.53
2023-05-14T08:03:19.672Z,3.20
2023-05-14T08:05:46.694Z,3.28
2023-05-14T08:08:13.761Z,3.42
2023-05-14T08:10:40.819Z,2.92
2023-05-14T08:13:08.267Z,3.67
2023-05-14T08:15:35.630Z,3.40
2023-05-14T08:18:03.949Z,3.00
2023-05-14T08:20:31.507Z,3.38
2023-05-14T08:22:58.828Z,3.53
2023-05-14T08:25:25.778Z,3.22
2023-05-14T08:27:54.284Z,2.80
2023-05-14T08:30:23.057Z,3.33
2023-05-14T08:32:50.549Z,2.60
2023-05-14T08:35:18.330Z,2.50
2023-05-14T08:37:45.822Z,2.30
2023-05-14T08:40:13.233Z,2.30
2023-05-14T08:42:45.017Z,2.72
2023-05-14T08:45:25.873Z,2.40
2023-05-14T08:47:53.726Z,2.33
2023-05-14T08:50:23.011Z,2.38
2023-05-14T08:52:51.670Z,2.90
2023-05-14T08:55:20.021Z,2.72
2023-05-14T08:57:47.357Z,2.60
2023-05-14T09:00:15.701Z,2.47
2023-05-14T09:02:45.053Z,2.55
2023-05-14T09:05:12.620Z,2.80
2023-05-14T09:07:39.888Z,2.30
2023-05-14T09:10:09.330Z,2.80
2023-05-14T09:12:36.398Z,2.72
2023-05-14T09:15:03.568Z,3.47
2023-05-14T09:17:30.681Z,2.97
2023-05-14T09:19:59.124Z,3.03
2023-05-14T09:22:31.994Z,3.22
2023-05-14T09:25:09.775Z,2.97
2023-05-14T09:27:37.236Z,2.50
2023-05-14T09:30:09.708Z,2.83
2023-05-14T09:32:38.309Z,2.50
2023-05-14T09:35:20.111Z,2.65
2023-05-14T09:37:49.914Z,2.38
2023-05-14T09:40:19.025Z,2.60
2023-05-14T09:42:46.943Z,2.75
2023-05-14T09:45:14.202Z,2.75
2023-05-14T09:47:41.456Z,2.58
2023-05-14T09:50:09.715Z,2.30
2023-05-14T09:52:37.388Z,2.55
2023-05-14T09:55:04.884Z,2.67
2023-05-14T09:57:32.078Z,2.70
2023-05-14T09:59:59.206Z,2.80
2023-05-14T10:02:34.048Z,3.40
2023-05-14T10:05:04.656Z,2.65
2023-05-14T10:07:37.629Z,2.58
2023-05-14T10:10:07.919Z,2.20
2023-05-14T10:12:38.956Z,2.30
2023-05-14T10:15:17.928Z,1.92
2023-05-14T10:17:49.657Z,2.10
2023-05-14T10:20:17.979Z,2.00
2023-05-14T10:22:45.498Z,2.20
2023-05-14T10:25:13.160Z,2.30
2023-05-14T10:27:41.217Z,2.10
2023-05-14T10:30:15.406Z,2.00
2023-05-14T10:32:44.259Z,2.50
2023-05-14T10:35:25.804Z,2.42
2023-05-14T10:37:53.062Z,1.65
2023-05-14T10:40:23.722Z,1.88
2023-05-14T10:42:51.023Z,2.45
2023-05-14T10:45:18.169Z,2.10
2023-05-14T10:47:47.421Z,1.80
2023-05-14T10:50:15.840Z,1.70
2023-05-14T10:52:44.160Z,2.55
2023-05-14T10:55:15.077Z,2.08
2023-05-14T10:57:46.194Z,2.10
2023-05-14T11:00:14.630Z,1.85
2023-05-14T11:02:44.499Z,2.22
2023-05-14T11:05:17.395Z,1.80
2023-05-14T11:07:47.848Z,1.58
2023-05-14T11:10:20.371Z,1.95
2023-05-14T11:12:50.944Z,1.65
2023-05-14T11:15:24.695Z,2.53
2023-05-14T11:17:52.925Z,1.85
2023-05-14T11:20:20.850Z,2.25
2023-05-14T11:22:49.376Z,2.10
2023-05-14T11:25:26.000Z,2.42
2023-05-14T11:27:56.075Z,1.70
2023-05-14T11:30:30.385Z,2.00
2023-05-14T11:32:58.277Z,2.20
2023-05-14T11:35:26.688Z,2.20
2023-05-14T11:37:54.010Z,2.13
2023-05-14T11:40:21.345Z,2.13
2023-05-14T11:42:52.563Z,2.00
2023-05-14T11:45:30.092Z,1.83
2023-05-14T11:47:57.174Z,1.83
2023-05-14T11:50:24.417Z,1.75
2023-05-14T11:52:56.160Z,2.00
2023-05-14T11:55:23.254Z,1.98
2023-05-14T11:57:51.228Z,1.80
2023-05-14T12:00:22.255Z,2.30
2023-05-14T12:02:50.131Z,2.00
2023-05-14T12:05:17.624Z,2.25
2023-05-14T12:07:47.976Z,2.15
2023-05-14T12:10:16.001Z,2.10
2023-05-14T12:12:47.347Z,2.38
2023-05-14T12:15:16.618Z,2.20
2023-05-14T12:17:49.767Z,2.00
2023-05-14T12:20:17.548Z,2.30
2023-05-14T12:22:44.899Z,2.03
2023-05-14T12:25:13.958Z,2.67
2023-05-14T12:27:41.924Z,2.65
2023-05-14T12:32:43.153Z,2.50
2023-05-14T12:35:10.923Z,2.40
2023-05-14T12:37:40.031Z,2.10
2023-05-14T12:40:11.027Z,2.45
2023-05-14T12:42:38.248Z,2.40
2023-05-14T12:45:08.144Z,2.40
2023-05-14T12:47:36.559Z,2.90
2023-05-14T12:50:03.903Z,2.70
2023-05-14T12:55:01.653Z,2.95
2023-05-14T12:57:29.991Z,2.70
2023-05-14T12:59:57.970Z,2.50
2023-05-14T13:02:26.296Z,2.58
2023-05-14T13:04:53.318Z,2.83
2023-05-14T13:07:20.709Z,2.75
2023-05-14T13:09:48.451Z,2.85
2023-05-14T13:12:15.896Z,3.25
2023-05-14T13:14:43.044Z,2.88
2023-05-14T13:17:10.294Z,2.80
2023-05-14T13:19:37.498Z,2.85
2023-05-14T13:22:05.158Z,2.70
2023-05-14T13:24:32.245Z,3.00
2023-05-14T13:26:59.525Z,3.10
2023-05-14T13:29:29.878Z,3.30
2023-05-14T13:31:56.934Z,2.92
2023-05-14T13:34:23.920Z,2.60
2023-05-14T13:36:51.016Z,2.83
2023-05-14T13:39:22.554Z,2.80
2023-05-14T13:41:50.782Z,2.70
2023-05-14T13:44:18.129Z,2.55
2023-05-14T13:46:45.251Z,2.83
2023-05-14T13:49:12.248Z,2.70
2023-05-14T13:51:39.299Z,3.13
2023-05-14T13:54:06.353Z,3.15
2023-05-14T13:56:33.278Z,2.78
2023-05-14T13:59:00.344Z,3.35
2023-05-14T14:01:27.907Z,2.92
2023-05-14T14:03:54.791Z,3.30
2023-05-14T14:06:21.710Z,3.50
2023-05-14T14:08:48.857Z,3.33
2023-05-14T14:11:17.232Z,3.13
2023-05-14T14:13:46.452Z,3.10
2023-05-14T14:16:13.782Z,3.45
2023-05-14T14:18:41.609Z,3.65
2023-05-14T14:21:09.089Z,3.47
2023-05-14T14:23:36.069Z,3.78
2023-05-14T14:26:03.075Z,3.45
2023-05-14T14:28:30.195Z,3.72
2023-05-14T14:30:57.145Z,3.35
2023-05-14T14:33:24.358Z,3.45
2023-05-14T14:35:51.788Z,3.30
2023-05-14T14:38:19.099Z,3.47
2023-05-14T14:40:46.444Z,3.45
2023-05-14T14:43:13.562Z,3.70
2023-05-14T14:45:40.787Z,3.47
2023-05-14T14:48:39.496Z,3.90
2023-05-14T14:51:07.928Z,3.50
2023-05-14T14:53:36.144Z,3.60
2023-05-14T14:56:03.171Z,3.90
2023-05-14T14:58:31.205Z,3.53
2023-05-14T15:00:58.931Z,3.60
2023-05-14T15:03:26.593Z,3.33
2023-05-14T15:05:54.077Z,3.60
2023-05-14T15:08:29.874Z,3.53
2023-05-14T15:10:57.270Z,3.60
2023-05-14T15:13:24.847Z,3.20
2023-05-14T15:15:52.702Z,3.53
2023-05-14T15:18:19.866Z,3.65
2023-05-14T15:20:46.994Z,3.38
2023-05-14T15:23:14.039Z,3.35
2023-05-14T15:25:40.993Z,3.20
2023-05-14T15:28:08.209Z,3.50
2023-05-14T15:30:35.279Z,3.28
2023-05-14T15:33:02.390Z,3.17
2023-05-14T15:35:29.538Z,3.50
2023-05-14T15:37:59.342Z,3.25
2023-05-14T15:40:27.881Z,3.17
2023-05-14T15:42:54.949Z,3.53
2023-05-14T15:45:21.879Z,3.28
2023-05-14T15:47:48.922Z,3.42
2023-05-14T15:50:16.054Z,3.42
2023-05-14T15:52:43.175Z,3.30
2023-05-14T15:55:10.542Z,3.20
2023-05-14T15:57:37.600Z,3.28
2023-05-14T16:00:11.262Z,3.10
2023-05-14T16:02:39.270Z,3.40
2023-05-14T16:05:07.893Z,3.65
2023-05-14T16:07:35.114Z,3.42
2023-05-14T16:10:02.149Z,3.45
2023-05-14T16:12:29.139Z,4.10
2023-05-14T16:14:57.775Z,3.17
2023-05-14T16:17:24.868Z,3.30
2023-05-14T16:19:53.447Z,3.10
2023-05-14T16:22:22.264Z,3.22
2023-05-14T16:24:49.222Z,2.88
2023-05-14T16:27:18.517Z,3.05
2023-05-14T16:29:45.832Z,3.55
2023-05-14T16:32:13.419Z,3.45
2023-05-14T16:34:40.715Z,3.63
2023-05-14T16:37:08.164Z,3.25
2023-05-14T16:39:35.174Z,3.28
2023-05-14T16:42:02.173Z,3.53
2023-05-14T16:44:29.074Z,3.33
2023-05-14T16:46:56.742Z,3.10
2023-05-14T16:49:23.886Z,3.35
2023-05-14T16:51:51.133Z,3.20
2023-05-14T16:54:18.095Z,3.88
2023-05-14T16:56:48.369Z,3.20
2023-05-14T16:59:16.127Z,4.07
2023-05-14T17:01:48.149Z,3.40
2023-05-14T17:04:15.598Z,3.67
2023-05-14T17:06:42.867Z,3.80
2023-05-14T17:09:10.293Z,3.85
2023-05-14T17:11:37.367Z,4.10
2023-05-14T17:14:04.563Z,3.60
2023-05-14T17:16:32.155Z,3.53
2023-05-14T17:18:59.204Z,3.80
2023-05-14T17:21:26.417Z,4.00
2023-05-14T17:23:53.374Z,3.40
2023-05-14T17:26:21.243Z,3.28
2023-05-14T17:28:48.194Z,3.85
2023-05-14T17:31:15.232Z,3.33
2023-05-14T17:33:42.272Z,3.17
2023-05-14T17:36:09.412Z,3.35
2023-05-14T17:38:36.524Z,3.33
2023-05-14T17:41:03.807Z,3.30
2023-05-14T17:43:30.828Z,3.20
2023-05-14T17:45:57.821Z,3.45
2023-05-14T17:48:24.922Z,2.90
2023-05-14T17:50:52.184Z,2.88
2023-05-14T17:53:19.373Z,3.40
2023-05-14T17:55:46.504Z,3.33
2023-05-14T17:58:15.663Z,3.63
2023-05-14T18:00:43.753Z,3.78
2023-05-14T18:03:11.654Z,3.40
2023-05-14T18:05:38.970Z,3.35
2023-05-14T18:08:06.065Z,3.33
2023-05-14T18:10:33.135Z,3.60
2023-05-14T18:13:01.652Z,3.08
2023-05-14T18:15:31.532Z,3.33
2023-05-14T18:17:58.597Z,3.33
2023-05-14T18:20:25.788Z,3.67
2023-05-14T18:22:52.770Z,2.95
2023-05-14T18:25:23.268Z,3.53
2023-05-14T18:27:50.662Z,3.58
2023-05-14T18:30:18.140Z,3.45
2023-05-14T18:32:45.778Z,3.40
2023-05-14T18:35:13.782Z,3.38
2023-05-14T18:37:41.207Z,3.75
2023-05-14T18:40:09.762Z,3.50
2023-05-14T18:42:37.139Z,3.95
2023-05-14T18:45:04.869Z,4.03
2023-05-14T18:47:33.045Z,4.07
2023-05-14T18:50:02.202Z,4.10
2023-05-14T18:52:29.910Z,3.83
2023-05-14T18:54:56.937Z,3.70
2023-05-14T18:57:24.125Z,3.85
2023-05-14T18:59:52.236Z,3.95
2023-05-14T19:02:19.908Z,3.70
2023-05-14T19:04:52.629Z,3.92
2023-05-14T19:07:22.353Z,4.18
2023-05-14T19:09:50.695Z,4.15
2023-05-14T19:12:19.268Z,4.15
2023-05-14T19:14:47.191Z,4.55
2023-05-14T19:17:14.507Z,4.72
2023-05-14T19:19:41.596Z,4.47
2023-05-14T19:22:08.685Z,4.15
2023-05-14T19:24:37.761Z,4.75
2023-05-14T19:27:04.964Z,4.28
2023-05-14T19:29:34.668Z,4.25
2023-05-14T19:32:01.742Z,4.55
2023-05-14T19:34:29.044Z,4.70
2023-05-14T19:36:56.223Z,4.38
2023-05-14T19:39:23.437Z,4.85
2023-05-14T19:41:50.529Z,5.85
2023-05-14T19:44:17.666Z,4.97
2023-05-14T19:46:45.354Z,4.90
2023-05-14T19:49:12.729Z,4.80
2023-05-14T19:51:40.105Z,5.18
2023-05-14T19:54:07.359Z,4.90
2023-05-14T19:56:34.300Z,4.82
2023-05-14T19:59:01.476Z,5.60
2023-05-14T20:01:29.017Z,5.80
2023-05-14T20:03:55.971Z,5.75
2023-05-14T20:06:23.048Z,5.30
2023-05-14T20:08:51.602Z,5.32
2023-05-14T20:11:19.975Z,5.60
2023-05-14T20:13:47.497Z,5.78
2023-05-14T20:16:16.908Z,5.07
2023-05-14T20:18:44.971Z,5.57
2023-05-14T20:21:12.498Z,6.07
2023-05-14T20:23:39.487Z,6.72
2023-05-14T20:26:06.995Z,5.97
2023-05-14T20:28:34.338Z,5.75
2023-05-14T20:31:04.076Z,5.75
2023-05-14T20:33:31.400Z,6.10
2023-05-14T20:35:58.496Z,6.15
2023-05-14T20:38:29.515Z,5.88
2023-05-14T20:40:57.000Z,5.60
2023-05-14T20:43:24.305Z,6.00
2023-05-14T20:45:51.346Z,6.50
2023-05-14T20:48:21.342Z,7.15
2023-05-14T20:50:48.467Z,5.72
2023-05-14T20:53:15.496Z,6.60
2023-05-14T20:55:42.577Z,6.40
2023-05-14T20:58:09.789Z,6.28
2023-05-14T21:00:36.800Z,6.00
2023-05-14T21:03:04.206Z,6.30
2023-05-14T21:05:31.286Z,6.30
2023-05-14T21:07:58.431Z,6.35
2023-05-14T21:10:25.890Z,6.00
2023-05-14T21:12:53.287Z,6.47
2023-05-14T21:15:20.723Z,6.35
2023-05-14T21:17:47.730Z,6.50
2023-05-14T21:20:15.620Z,6.82
2023-05-14T21:22:42.705Z,6.53
2023-05-14T21:25:10.053Z,6.35
2023-05-14T21:27:37.435Z,6.38
2023-05-14T21:30:04.950Z,6.82
2023-05-14T21:32:32.113Z,6.65
2023-05-14T21:34:59.368Z,6.78
2023-05-14T21:37:26.411Z,6.80
2023-05-14T21:39:53.709Z,6.55
2023-05-14T21:42:21.295Z,7.07
2023-05-14T21:44:48.339Z,7.85
2023-05-14T21:47:16.271Z,7.45
2023-05-14T21:49:43.746Z,7.40
2023-05-14T21:52:10.967Z,8.75
2023-05-14T21:54:38.089Z,7.45
2023-05-14T21:57:05.503Z,7.45
2023-05-14T21:59:39.227Z,8.07
2023-05-14T22:02:07.734Z,7.70
2023-05-14T22:04:35.350Z,7.90
2023-05-14T22:07:02.534Z,7.70
2023-05-14T22:09:30.447Z,7.38
2023-05-14T22:11:58.559Z,7.30
2023-05-14T22:14:27.395Z,7.68
2023-05-14T22:16:54.706Z,7.22
2023-05-14T22:19:22.501Z,8.48
2023-05-14T22:21:49.463Z,6.53
2023-05-14T22:24:16.373Z,7.40
2023-05-14T22:26:43.575Z,7.22
2023-05-14T22:29:10.505Z,7.57
2023-05-14T22:31:37.504Z,6.93
2023-05-14T22:34:04.455Z,7.05
2023-05-14T22:36:31.417Z,7.18
2023-05-14T22:38:58.290Z,7.35
2023-05-14T22:41:25.264Z,8.13
2023-05-14T22:43:52.165Z,7.15
2023-05-14T22:46:19.305Z,7.53
2023-05-14T22:48:49.006Z,7.82
2023-05-14T22:51:16.541Z,7.82
2023-05-14T22:53:43.471Z,8.20
2023-05-14T22:56:10.461Z,8.20
2023-05-14T22:58:37.356Z,8.00
2023-05-14T23:01:04.357Z,7.72
2023-05-14T23:03:31.279Z,9.43
2023-05-14T23:05:58.373Z,8.48
2023-05-14T23:08:25.302Z,7.60
2023-05-14T23:10:52.428Z,8.50
2023-05-14T23:13:19.431Z,8.18
2023-05-14T23:15:46.474Z,8.23
2023-05-14T23:18:13.500Z,8.73
2023-05-14T23:20:40.766Z,7.88
2023-05-14T23:23:07.692Z,8.57
2023-05-14T23:25:34.704Z,8.20
2023-05-14T23:28:01.735Z,7.93
2023-05-14T23:30:28.770Z,7.90
2023-05-14T23:32:55.851Z,8.57
2023-05-14T23:35:24.338Z,7.85
2023-05-14T23:37:51.906Z,8.13
2023-05-14T23:40:18.910Z,8.30
2023-05-14T23:42:46.551Z,8.55
2023-05-14T23:45:13.838Z,7.95
2023-05-14T23:47:41.573Z,8.85
2023-05-14T23:50:08.776Z,8.20
2023-05-14T23:52:35.916Z,8.60
2023-05-14T23:55:04.387Z,8.60
2023-05-14T23:57:31.374Z,8.35
2023-05-14T23:59:58.853Z,8.60
